sensor_id;sensor_type;location;lat;lon;timestamp;temperature;humidity
68378;DHT22;55322;48.146;11.516;2023-09-08T00:00:27;14.28;91.34
68378;DHT22;55322;48.146;11.516;2023-09-08T00:02:52;14.28;91.42
68378;DHT22;55322;48.146;11.516;2023-09-08T00:05:17;14.28;91.43
68378;DHT22;55322;48.146;11.516;2023-09-08T00:07:42;14.29;91.58
68378;DHT22;55322;48.146;11.516;2023-09-08T00:10:08;14.26;91.49
68378;DHT22;55322;48.146;11.516;2023-09-08T00:12:33;14.23;91.65
68378;DHT22;55322;48.146;11.516;2023-09-08T00:14:59;14.18;91.99
68378;DHT22;55322;48.146;11.516;2023-09-08T00:17:24;14.10;92.16
68378;DHT22;55322;48.146;11.516;2023-09-08T00:19:49;14.04;92.42
68378;DHT22;55322;48.146;11.516;2023-09-08T00:22:15;14.01;92.63
68378;DHT22;55322;48.146;11.516;2023-09-08T00:24:41;13.99;92.77
68378;DHT22;55322;48.146;11.516;2023-09-08T00:27:06;13.95;92.77
68378;DHT22;55322;48.146;11.516;2023-09-08T00:29:31;13.86;92.87
68378;DHT22;55322;48.146;11.516;2023-09-08T00:31:57;13.92;92.82
68378;DHT22;55322;48.146;11.516;2023-09-08T00:34:22;13.90;92.53
68378;DHT22;55322;48.146;11.516;2023-09-08T00:36:47;13.89;92.95
68378;DHT22;55322;48.146;11.516;2023-09-08T00:39:13;13.92;93.02
68378;DHT22;55322;48.146;11.516;2023-09-08T00:41:38;13.92;92.84
68378;DHT22;55322;48.146;11.516;2023-09-08T00:44:03;13.92;92.66
68378;DHT22;55322;48.146;11.516;2023-09-08T00:46:29;13.85;92.45
68378;DHT22;55322;48.146;11.516;2023-09-08T00:48:55;13.81;92.58
68378;DHT22;55322;48.146;11.516;2023-09-08T00:51:21;13.88;92.69
68378;DHT22;55322;48.146;11.516;2023-09-08T00:53:47;13.81;92.96
68378;DHT22;55322;48.146;11.516;2023-09-08T00:56:12;13.74;93.07
68378;DHT22;55322;48.146;11.516;2023-09-08T00:58:38;13.68;93.35
68378;DHT22;55322;48.146;11.516;2023-09-08T01:01:03;13.68;93.32
68378;DHT22;55322;48.146;11.516;2023-09-08T01:03:30;13.65;93.53
68378;DHT22;55322;48.146;11.516;2023-09-08T01:05:56;13.69;93.42
68378;DHT22;55322;48.146;11.516;2023-09-08T01:08:21;13.67;93.36
68378;DHT22;55322;48.146;11.516;2023-09-08T01:10:47;13.65;93.28
68378;DHT22;55322;48.146;11.516;2023-09-08T01:13:13;13.64;93.11
68378;DHT22;55322;48.146;11.516;2023-09-08T01:15:38;13.62;92.91
68378;DHT22;55322;48.146;11.516;2023-09-08T01:18:03;13.61;93.18
68378;DHT22;55322;48.146;11.516;2023-09-08T01:21:03;13.57;93.31
68378;DHT22;55322;48.146;11.516;2023-09-08T01:23:50;13.57;93.31
68378;DHT22;55322;48.146;11.516;2023-09-08T01:26:21;13.54;93.48
68378;DHT22;55322;48.146;11.516;2023-09-08T01:28:51;13.53;93.50
68378;DHT22;55322;48.146;11.516;2023-09-08T01:31:17;13.51;93.45
68378;DHT22;55322;48.146;11.516;2023-09-08T01:33:43;13.50;93.74
68378;DHT22;55322;48.146;11.516;2023-09-08T01:36:09;13.44;93.88
68378;DHT22;55322;48.146;11.516;2023-09-08T01:38:35;13.47;93.90
68378;DHT22;55322;48.146;11.516;2023-09-08T01:41:00;13.43;93.93
68378;DHT22;55322;48.146;11.516;2023-09-08T01:43:27;13.40;93.89
68378;DHT22;55322;48.146;11.516;2023-09-08T01:45:52;13.35;93.81
68378;DHT22;55322;48.146;11.516;2023-09-08T01:48:17;13.33;93.79
68378;DHT22;55322;48.146;11.516;2023-09-08T01:50:43;13.31;94.04
68378;DHT22;55322;48.146;11.516;2023-09-08T01:53:08;13.30;94.06
68378;DHT22;55322;48.146;11.516;2023-09-08T01:55:33;13.28;93.72
68378;DHT22;55322;48.146;11.516;2023-09-08T01:57:59;13.28;93.53
68378;DHT22;55322;48.146;11.516;2023-09-08T02:00:24;13.24;93.47
68378;DHT22;55322;48.146;11.516;2023-09-08T02:02:49;13.20;93.44
68378;DHT22;55322;48.146;11.516;2023-09-08T02:05:15;13.20;93.53
68378;DHT22;55322;48.146;11.516;2023-09-08T02:07:40;13.20;93.67
68378;DHT22;55322;48.146;11.516;2023-09-08T02:10:06;13.20;93.74
68378;DHT22;55322;48.146;11.516;2023-09-08T02:12:31;13.17;94.32
68378;DHT22;55322;48.146;11.516;2023-09-08T02:14:57;13.10;94.35
68378;DHT22;55322;48.146;11.516;2023-09-08T02:17:22;13.13;94.30
68378;DHT22;55322;48.146;11.516;2023-09-08T02:19:48;13.18;94.32
68378;DHT22;55322;48.146;11.516;2023-09-08T02:22:13;13.20;94.15
68378;DHT22;55322;48.146;11.516;2023-09-08T02:24:38;13.10;94.37
68378;DHT22;55322;48.146;11.516;2023-09-08T02:27:04;13.06;94.23
68378;DHT22;55322;48.146;11.516;2023-09-08T02:29:29;13.04;94.14
68378;DHT22;55322;48.146;11.516;2023-09-08T02:31:55;13.04;94.18
68378;DHT22;55322;48.146;11.516;2023-09-08T02:34:21;13.04;94.19
68378;DHT22;55322;48.146;11.516;2023-09-08T02:36:46;13.07;94.13
68378;DHT22;55322;48.146;11.516;2023-09-08T02:39:13;13.02;93.85
68378;DHT22;55322;48.146;11.516;2023-09-08T02:41:38;12.99;93.69
68378;DHT22;55322;48.146;11.516;2023-09-08T02:44:04;12.96;93.67
68378;DHT22;55322;48.146;11.516;2023-09-08T02:46:30;12.92;93.60
68378;DHT22;55322;48.146;11.516;2023-09-08T02:48:55;12.93;93.71
68378;DHT22;55322;48.146;11.516;2023-09-08T02:51:21;12.90;94.07
68378;DHT22;55322;48.146;11.516;2023-09-08T02:53:46;12.90;94.54
68378;DHT22;55322;48.146;11.516;2023-09-08T02:56:11;12.89;94.59
68378;DHT22;55322;48.146;11.516;2023-09-08T02:58:36;12.90;94.41
68378;DHT22;55322;48.146;11.516;2023-09-08T03:03:37;12.89;94.72
68378;DHT22;55322;48.146;11.516;2023-09-08T03:06:02;12.83;94.72
68378;DHT22;55322;48.146;11.516;2023-09-08T03:08:28;12.76;94.98
68378;DHT22;55322;48.146;11.516;2023-09-08T03:10:55;12.77;94.90
68378;DHT22;55322;48.146;11.516;2023-09-08T03:13:21;12.77;94.80
68378;DHT22;55322;48.146;11.516;2023-09-08T03:15:47;12.72;94.94
68378;DHT22;55322;48.146;11.516;2023-09-08T03:18:12;12.75;94.96
68378;DHT22;55322;48.146;11.516;2023-09-08T03:20:37;12.77;94.65
68378;DHT22;55322;48.146;11.516;2023-09-08T03:23:03;12.77;94.35
68378;DHT22;55322;48.146;11.516;2023-09-08T03:25:28;12.77;94.31
68378;DHT22;55322;48.146;11.516;2023-09-08T03:27:53;12.75;94.00
68378;DHT22;55322;48.146;11.516;2023-09-08T03:30:18;12.75;94.02
68378;DHT22;55322;48.146;11.516;2023-09-08T03:32:44;12.80;94.15
68378;DHT22;55322;48.146;11.516;2023-09-08T03:35:10;12.79;94.22
68378;DHT22;55322;48.146;11.516;2023-09-08T03:37:35;12.73;94.52
68378;DHT22;55322;48.146;11.516;2023-09-08T03:40:01;12.70;94.75
68378;DHT22;55322;48.146;11.516;2023-09-08T03:42:26;12.66;94.90
68378;DHT22;55322;48.146;11.516;2023-09-08T03:44:51;12.62;95.30
68378;DHT22;55322;48.146;11.516;2023-09-08T03:47:17;12.59;95.36
68378;DHT22;55322;48.146;11.516;2023-09-08T03:49:42;12.60;95.19
68378;DHT22;55322;48.146;11.516;2023-09-08T03:52:07;12.60;95.32
68378;DHT22;55322;48.146;11.516;2023-09-08T03:54:33;12.62;95.12
68378;DHT22;55322;48.146;11.516;2023-09-08T03:56:58;12.64;94.95
68378;DHT22;55322;48.146;11.516;2023-09-08T03:59:23;12.62;94.68
68378;DHT22;55322;48.146;11.516;2023-09-08T04:01:49;12.57;94.46
68378;DHT22;55322;48.146;11.516;2023-09-08T04:04:14;12.59;94.70
68378;DHT22;55322;48.146;11.516;2023-09-08T04:06:39;12.53;95.15
68378;DHT22;55322;48.146;11.516;2023-09-08T04:09:04;12.49;95.35
68378;DHT22;55322;48.146;11.516;2023-09-08T04:11:30;12.46;95.39
68378;DHT22;55322;48.146;11.516;2023-09-08T04:13:55;12.46;95.43
68378;DHT22;55322;48.146;11.516;2023-09-08T04:16:20;12.45;95.47
68378;DHT22;55322;48.146;11.516;2023-09-08T04:18:46;12.45;95.56
68378;DHT22;55322;48.146;11.516;2023-09-08T04:21:11;12.45;95.55
68378;DHT22;55322;48.146;11.516;2023-09-08T04:23:36;12.45;95.59
68378;DHT22;55322;48.146;11.516;2023-09-08T04:26:02;12.42;95.61
68378;DHT22;55322;48.146;11.516;2023-09-08T04:28:27;12.39;95.62
68378;DHT22;55322;48.146;11.516;2023-09-08T04:30:52;12.35;95.84
68378;DHT22;55322;48.146;11.516;2023-09-08T04:33:18;12.33;95.87
68378;DHT22;55322;48.146;11.516;2023-09-08T04:35:43;12.38;95.65
68378;DHT22;55322;48.146;11.516;2023-09-08T04:38:09;12.33;95.71
68378;DHT22;55322;48.146;11.516;2023-09-08T04:40:34;12.35;95.76
68378;DHT22;55322;48.146;11.516;2023-09-08T04:42:59;12.35;95.70
68378;DHT22;55322;48.146;11.516;2023-09-08T04:45:24;12.33;95.81
68378;DHT22;55322;48.146;11.516;2023-09-08T04:47:50;12.40;95.66
68378;DHT22;55322;48.146;11.516;2023-09-08T04:50:15;12.40;95.29
68378;DHT22;55322;48.146;11.516;2023-09-08T04:52:41;12.36;95.13
68378;DHT22;55322;48.146;11.516;2023-09-08T04:55:06;12.38;94.93
68378;DHT22;55322;48.146;11.516;2023-09-08T04:57:32;12.33;95.25
68378;DHT22;55322;48.146;11.516;2023-09-08T04:59:57;12.32;95.28
68378;DHT22;55322;48.146;11.516;2023-09-08T05:02:23;12.32;95.51
68378;DHT22;55322;48.146;11.516;2023-09-08T05:04:48;12.26;95.76
68378;DHT22;55322;48.146;11.516;2023-09-08T05:07:13;12.26;95.88
68378;DHT22;55322;48.146;11.516;2023-09-08T05:09:39;12.26;96.06
68378;DHT22;55322;48.146;11.516;2023-09-08T05:12:04;12.25;96.11
68378;DHT22;55322;48.146;11.516;2023-09-08T05:14:30;12.28;96.10
68378;DHT22;55322;48.146;11.516;2023-09-08T05:16:56;12.33;96.10
68378;DHT22;55322;48.146;11.516;2023-09-08T05:19:22;12.40;95.95
68378;DHT22;55322;48.146;11.516;2023-09-08T05:21:50;12.48;95.89
68378;DHT22;55322;48.146;11.516;2023-09-08T05:24:15;12.53;95.76
68378;DHT22;55322;48.146;11.516;2023-09-08T05:26:41;12.60;95.73
68378;DHT22;55322;48.146;11.516;2023-09-08T05:29:06;12.63;95.56
68378;DHT22;55322;48.146;11.516;2023-09-08T05:31:32;12.67;95.40
68378;DHT22;55322;48.146;11.516;2023-09-08T05:33:57;12.77;95.69
68378;DHT22;55322;48.146;11.516;2023-09-08T05:36:22;12.87;95.74
68378;DHT22;55322;48.146;11.516;2023-09-08T05:38:47;12.96;95.76
68378;DHT22;55322;48.146;11.516;2023-09-08T05:41:13;13.07;95.40
68378;DHT22;55322;48.146;11.516;2023-09-08T05:43:38;13.18;95.50
68378;DHT22;55322;48.146;11.516;2023-09-08T05:46:04;13.15;95.00
68378;DHT22;55322;48.146;11.516;2023-09-08T05:48:29;13.23;95.08
68378;DHT22;55322;48.146;11.516;2023-09-08T05:50:54;13.30;94.83
68378;DHT22;55322;48.146;11.516;2023-09-08T05:53:20;13.38;94.69
68378;DHT22;55322;48.146;11.516;2023-09-08T05:55:45;13.47;94.67
68378;DHT22;55322;48.146;11.516;2023-09-08T05:58:10;13.57;94.64
68378;DHT22;55322;48.146;11.516;2023-09-08T06:00:36;13.65;94.74
68378;DHT22;55322;48.146;11.516;2023-09-08T06:03:01;13.72;94.54
68378;DHT22;55322;48.146;11.516;2023-09-08T06:05:28;13.81;94.38
68378;DHT22;55322;48.146;11.516;2023-09-08T06:07:53;13.96;93.68
68378;DHT22;55322;48.146;11.516;2023-09-08T06:10:18;14.23;93.28
68378;DHT22;55322;48.146;11.516;2023-09-08T06:12:44;14.55;92.25
68378;DHT22;55322;48.146;11.516;2023-09-08T06:15:09;14.77;91.12
68378;DHT22;55322;48.146;11.516;2023-09-08T06:17:35;14.97;90.56
68378;DHT22;55322;48.146;11.516;2023-09-08T06:20:00;15.45;89.61
68378;DHT22;55322;48.146;11.516;2023-09-08T06:22:25;15.70;87.79
68378;DHT22;55322;48.146;11.516;2023-09-08T06:24:51;16.00;87.10
68378;DHT22;55322;48.146;11.516;2023-09-08T06:27:16;16.19;87.11
68378;DHT22;55322;48.146;11.516;2023-09-08T06:29:41;16.24;85.26
68378;DHT22;55322;48.146;11.516;2023-09-08T06:32:08;16.13;86.99
68378;DHT22;55322;48.146;11.516;2023-09-08T06:34:34;16.06;87.40
68378;DHT22;55322;48.146;11.516;2023-09-08T06:37:00;16.03;87.34
68378;DHT22;55322;48.146;11.516;2023-09-08T06:39:26;15.98;86.39
68378;DHT22;55322;48.146;11.516;2023-09-08T06:41:52;15.96;85.74
68378;DHT22;55322;48.146;11.516;2023-09-08T06:44:19;15.93;86.64
68378;DHT22;55322;48.146;11.516;2023-09-08T06:46:44;15.92;87.82
68378;DHT22;55322;48.146;11.516;2023-09-08T06:49:09;15.92;86.77
68378;DHT22;55322;48.146;11.516;2023-09-08T06:51:35;15.95;87.36
68378;DHT22;55322;48.146;11.516;2023-09-08T06:54:00;15.99;86.66
68378;DHT22;55322;48.146;11.516;2023-09-08T06:56:25;16.05;86.67
68378;DHT22;55322;48.146;11.516;2023-09-08T06:58:51;16.14;87.01
68378;DHT22;55322;48.146;11.516;2023-09-08T07:01:17;16.21;86.39
68378;DHT22;55322;48.146;11.516;2023-09-08T07:03:42;16.34;86.19
68378;DHT22;55322;48.146;11.516;2023-09-08T07:06:07;16.46;86.31
68378;DHT22;55322;48.146;11.516;2023-09-08T07:08:33;16.57;87.12
68378;DHT22;55322;48.146;11.516;2023-09-08T07:10:58;16.61;86.17
68378;DHT22;55322;48.146;11.516;2023-09-08T07:13:23;16.67;86.11
68378;DHT22;55322;48.146;11.516;2023-09-08T07:15:48;16.75;85.90
68378;DHT22;55322;48.146;11.516;2023-09-08T07:18:14;16.87;83.97
68378;DHT22;55322;48.146;11.516;2023-09-08T07:20:39;16.95;83.26
68378;DHT22;55322;48.146;11.516;2023-09-08T07:23:06;17.19;83.38
68378;DHT22;55322;48.146;11.516;2023-09-08T07:25:31;17.68;81.47
68378;DHT22;55322;48.146;11.516;2023-09-08T07:27:56;18.23;78.55
68378;DHT22;55322;48.146;11.516;2023-09-08T07:30:22;18.99;77.99
68378;DHT22;55322;48.146;11.516;2023-09-08T07:32:47;19.65;73.78
68378;DHT22;55322;48.146;11.516;2023-09-08T07:35:13;20.35;71.88
68378;DHT22;55322;48.146;11.516;2023-09-08T07:37:40;21.20;70.54
68378;DHT22;55322;48.146;11.516;2023-09-08T07:40:08;22.03;68.17
68378;DHT22;55322;48.146;11.516;2023-09-08T07:42:34;22.71;64.72
68378;DHT22;55322;48.146;11.516;2023-09-08T07:44:59;23.53;63.96
68378;DHT22;55322;48.146;11.516;2023-09-08T07:47:24;24.21;61.92
68378;DHT22;55322;48.146;11.516;2023-09-08T07:49:50;25.02;58.61
68378;DHT22;55322;48.146;11.516;2023-09-08T07:52:15;25.49;56.60
68378;DHT22;55322;48.146;11.516;2023-09-08T07:54:40;25.63;57.44
68378;DHT22;55322;48.146;11.516;2023-09-08T07:57:06;26.75;54.81
68378;DHT22;55322;48.146;11.516;2023-09-08T07:59:31;26.49;54.98
68378;DHT22;55322;48.146;11.516;2023-09-08T08:01:56;26.62;54.07
68378;DHT22;55322;48.146;11.516;2023-09-08T08:04:22;27.39;51.47
68378;DHT22;55322;48.146;11.516;2023-09-08T08:06:47;26.89;52.38
68378;DHT22;55322;48.146;11.516;2023-09-08T08:09:14;27.29;51.36
68378;DHT22;55322;48.146;11.516;2023-09-08T08:11:39;27.97;51.01
68378;DHT22;55322;48.146;11.516;2023-09-08T08:14:05;28.11;50.24
68378;DHT22;55322;48.146;11.516;2023-09-08T08:16:30;28.21;52.31
68378;DHT22;55322;48.146;11.516;2023-09-08T08:18:55;28.38;49.59
68378;DHT22;55322;48.146;11.516;2023-09-08T08:21:21;28.51;49.78
68378;DHT22;55322;48.146;11.516;2023-09-08T08:23:48;29.34;47.38
68378;DHT22;55322;48.146;11.516;2023-09-08T08:26:13;29.98;46.64
68378;DHT22;55322;48.146;11.516;2023-09-08T08:28:38;30.31;46.56
68378;DHT22;55322;48.146;11.516;2023-09-08T08:31:04;29.14;47.44
68378;DHT22;55322;48.146;11.516;2023-09-08T08:33:30;29.48;46.76
68378;DHT22;55322;48.146;11.516;2023-09-08T08:35:55;29.91;45.17
68378;DHT22;55322;48.146;11.516;2023-09-08T08:38:21;29.92;46.25
68378;DHT22;55322;48.146;11.516;2023-09-08T08:40:47;28.96;47.64
68378;DHT22;55322;48.146;11.516;2023-09-08T08:43:12;28.38;49.47
68378;DHT22;55322;48.146;11.516;2023-09-08T08:45:38;29.61;48.16
68378;DHT22;55322;48.146;11.516;2023-09-08T08:48:07;30.62;47.86
68378;DHT22;55322;48.146;11.516;2023-09-08T08:50:35;29.06;46.38
68378;DHT22;55322;48.146;11.516;2023-09-08T08:53:00;28.95;49.80
68378;DHT22;55322;48.146;11.516;2023-09-08T08:55:29;30.39;49.16
68378;DHT22;55322;48.146;11.516;2023-09-08T08:58:00;31.20;45.21
68378;DHT22;55322;48.146;11.516;2023-09-08T09:00:28;31.67;44.14
68378;DHT22;55322;48.146;11.516;2023-09-08T09:02:54;32.43;43.86
68378;DHT22;55322;48.146;11.516;2023-09-08T09:05:21;33.21;40.65
68378;DHT22;55322;48.146;11.516;2023-09-08T09:07:47;32.95;40.27
68378;DHT22;55322;48.146;11.516;2023-09-08T09:10:13;32.87;40.12
68378;DHT22;55322;48.146;11.516;2023-09-08T09:12:39;31.62;42.04
68378;DHT22;55322;48.146;11.516;2023-09-08T09:15:05;32.12;41.79
68378;DHT22;55322;48.146;11.516;2023-09-08T09:17:35;32.52;43.47
68378;DHT22;55322;48.146;11.516;2023-09-08T09:20:15;32.42;41.41
68378;DHT22;55322;48.146;11.516;2023-09-08T09:22:43;32.56;43.20
68378;DHT22;55322;48.146;11.516;2023-09-08T09:25:09;33.17;42.00
68378;DHT22;55322;48.146;11.516;2023-09-08T09:27:35;32.97;42.29
68378;DHT22;55322;48.146;11.516;2023-09-08T09:30:03;33.50;41.73
68378;DHT22;55322;48.146;11.516;2023-09-08T09:32:29;33.28;41.59
68378;DHT22;55322;48.146;11.516;2023-09-08T09:34:56;33.02;43.01
68378;DHT22;55322;48.146;11.516;2023-09-08T09:37:22;33.28;41.80
68378;DHT22;55322;48.146;11.516;2023-09-08T09:39:51;33.34;40.96
68378;DHT22;55322;48.146;11.516;2023-09-08T09:42:17;32.99;40.84
68378;DHT22;55322;48.146;11.516;2023-09-08T09:44:43;32.53;42.41
68378;DHT22;55322;48.146;11.516;2023-09-08T09:47:08;32.72;43.64
68378;DHT22;55322;48.146;11.516;2023-09-08T09:49:45;33.37;41.82
68378;DHT22;55322;48.146;11.516;2023-09-08T09:52:21;33.55;42.00
68378;DHT22;55322;48.146;11.516;2023-09-08T09:54:48;33.26;41.87
68378;DHT22;55322;48.146;11.516;2023-09-08T09:57:16;32.67;41.06
68378;DHT22;55322;48.146;11.516;2023-09-08T09:59:42;32.66;40.51
68378;DHT22;55322;48.146;11.516;2023-09-08T10:02:13;32.73;43.22
68378;DHT22;55322;48.146;11.516;2023-09-08T10:04:42;32.52;41.90
68378;DHT22;55322;48.146;11.516;2023-09-08T10:07:08;32.06;42.15
68378;DHT22;55322;48.146;11.516;2023-09-08T10:09:36;31.91;43.01
68378;DHT22;55322;48.146;11.516;2023-09-08T10:12:04;32.29;43.94
68378;DHT22;55322;48.146;11.516;2023-09-08T10:14:31;32.48;42.71
68378;DHT22;55322;48.146;11.516;2023-09-08T10:16:59;31.80;39.90
68378;DHT22;55322;48.146;11.516;2023-09-08T10:19:25;32.02;40.61
68378;DHT22;55322;48.146;11.516;2023-09-08T10:21:51;32.02;41.53
68378;DHT22;55322;48.146;11.516;2023-09-08T10:24:22;31.62;41.06
68378;DHT22;55322;48.146;11.516;2023-09-08T10:27:10;31.71;42.60
68378;DHT22;55322;48.146;11.516;2023-09-08T10:29:37;31.62;42.50
68378;DHT22;55322;48.146;11.516;2023-09-08T10:32:04;31.48;42.31
68378;DHT22;55322;48.146;11.516;2023-09-08T10:34:30;31.98;43.97
68378;DHT22;55322;48.146;11.516;2023-09-08T10:36:56;31.30;41.65
68378;DHT22;55322;48.146;11.516;2023-09-08T10:39:32;31.14;44.65
68378;DHT22;55322;48.146;11.516;2023-09-08T10:47:22;31.00;46.30
68378;DHT22;55322;48.146;11.516;2023-09-08T10:49:47;29.55;47.47
68378;DHT22;55322;48.146;11.516;2023-09-08T10:52:13;29.31;48.48
68378;DHT22;55322;48.146;11.516;2023-09-08T10:54:48;29.55;49.38
68378;DHT22;55322;48.146;11.516;2023-09-08T10:57:22;28.80;50.91
68378;DHT22;55322;48.146;11.516;2023-09-08T10:59:52;28.77;51.54
68378;DHT22;55322;48.146;11.516;2023-09-08T11:02:41;28.25;50.41
68378;DHT22;55322;48.146;11.516;2023-09-08T11:05:14;28.41;49.83
68378;DHT22;55322;48.146;11.516;2023-09-08T11:07:41;28.32;51.82
68378;DHT22;55322;48.146;11.516;2023-09-08T11:10:08;28.25;51.02
68378;DHT22;55322;48.146;11.516;2023-09-08T11:12:34;28.55;51.10
68378;DHT22;55322;48.146;11.516;2023-09-08T11:15:01;29.24;48.80
68378;DHT22;55322;48.146;11.516;2023-09-08T11:17:30;28.70;49.06
68378;DHT22;55322;48.146;11.516;2023-09-08T11:19:56;28.84;49.64
68378;DHT22;55322;48.146;11.516;2023-09-08T11:22:25;28.97;49.94
68378;DHT22;55322;48.146;11.516;2023-09-08T11:24:55;29.31;49.77
68378;DHT22;55322;48.146;11.516;2023-09-08T11:27:22;28.82;48.88
68378;DHT22;55322;48.146;11.516;2023-09-08T11:29:48;27.77;50.85
68378;DHT22;55322;48.146;11.516;2023-09-08T11:32:13;27.58;53.44
68378;DHT22;55322;48.146;11.516;2023-09-08T11:34:38;27.57;53.06
68378;DHT22;55322;48.146;11.516;2023-09-08T11:37:13;28.25;52.44
68378;DHT22;55322;48.146;11.516;2023-09-08T11:39:47;28.77;49.67
68378;DHT22;55322;48.146;11.516;2023-09-08T11:42:14;28.97;49.72
68378;DHT22;55322;48.146;11.516;2023-09-08T11:44:41;28.80;51.83
68378;DHT22;55322;48.146;11.516;2023-09-08T11:47:09;29.44;52.11
68378;DHT22;55322;48.146;11.516;2023-09-08T11:49:41;29.55;48.56
68378;DHT22;55322;48.146;11.516;2023-09-08T11:52:07;29.86;47.77
68378;DHT22;55322;48.146;11.516;2023-09-08T11:54:34;29.51;49.68
68378;DHT22;55322;48.146;11.516;2023-09-08T11:57:01;29.23;49.54
68378;DHT22;55322;48.146;11.516;2023-09-08T11:59:34;29.09;49.71
68378;DHT22;55322;48.146;11.516;2023-09-08T12:02:00;28.18;52.31
68378;DHT22;55322;48.146;11.516;2023-09-08T12:04:25;27.95;51.62
68378;DHT22;55322;48.146;11.516;2023-09-08T12:06:52;27.74;51.74
68378;DHT22;55322;48.146;11.516;2023-09-08T12:09:18;27.76;53.93
68378;DHT22;55322;48.146;11.516;2023-09-08T12:11:45;27.77;53.92
68378;DHT22;55322;48.146;11.516;2023-09-08T12:14:11;28.21;54.15
68378;DHT22;55322;48.146;11.516;2023-09-08T12:16:37;28.18;53.48
68378;DHT22;55322;48.146;11.516;2023-09-08T12:19:03;28.06;53.14
68378;DHT22;55322;48.146;11.516;2023-09-08T12:21:28;27.78;52.27
68378;DHT22;55322;48.146;11.516;2023-09-08T12:23:54;27.80;55.18
68378;DHT22;55322;48.146;11.516;2023-09-08T12:26:20;28.19;53.34
68378;DHT22;55322;48.146;11.516;2023-09-08T12:28:47;28.02;52.86
68378;DHT22;55322;48.146;11.516;2023-09-08T12:31:13;27.76;54.17
68378;DHT22;55322;48.146;11.516;2023-09-08T12:33:39;27.54;54.92
68378;DHT22;55322;48.146;11.516;2023-09-08T12:36:15;27.85;53.66
68378;DHT22;55322;48.146;11.516;2023-09-08T12:38:41;27.61;53.40
68378;DHT22;55322;48.146;11.516;2023-09-08T12:41:06;27.43;54.61
68378;DHT22;55322;48.146;11.516;2023-09-08T12:43:32;27.24;54.97
68378;DHT22;55322;48.146;11.516;2023-09-08T12:45:57;27.74;54.32
68378;DHT22;55322;48.146;11.516;2023-09-08T12:48:23;27.70;54.62
68378;DHT22;55322;48.146;11.516;2023-09-08T12:50:48;27.60;53.28
68378;DHT22;55322;48.146;11.516;2023-09-08T12:53:14;27.51;55.77
68378;DHT22;55322;48.146;11.516;2023-09-08T12:55:40;27.29;54.98
68378;DHT22;55322;48.146;11.516;2023-09-08T12:58:05;27.29;53.57
68378;DHT22;55322;48.146;11.516;2023-09-08T13:00:31;27.29;54.07
68378;DHT22;55322;48.146;11.516;2023-09-08T13:02:56;27.14;55.75
68378;DHT22;55322;48.146;11.516;2023-09-08T13:05:21;27.31;55.94
68378;DHT22;55322;48.146;11.516;2023-09-08T13:07:47;27.29;55.27
68378;DHT22;55322;48.146;11.516;2023-09-08T13:10:12;27.22;54.84
68378;DHT22;55322;48.146;11.516;2023-09-08T13:12:37;27.11;56.47
68378;DHT22;55322;48.146;11.516;2023-09-08T13:15:03;27.24;54.31
68378;DHT22;55322;48.146;11.516;2023-09-08T13:17:29;27.23;55.07
68378;DHT22;55322;48.146;11.516;2023-09-08T13:19:54;27.36;56.13
68378;DHT22;55322;48.146;11.516;2023-09-08T13:22:20;27.43;54.40
68378;DHT22;55322;48.146;11.516;2023-09-08T13:24:45;27.37;55.55
68378;DHT22;55322;48.146;11.516;2023-09-08T13:27:10;27.20;55.92
68378;DHT22;55322;48.146;11.516;2023-09-08T13:29:36;27.06;55.49
68378;DHT22;55322;48.146;11.516;2023-09-08T13:32:03;27.07;56.29
68378;DHT22;55322;48.146;11.516;2023-09-08T13:34:29;27.26;57.25
68378;DHT22;55322;48.146;11.516;2023-09-08T13:36:54;27.22;56.54
68378;DHT22;55322;48.146;11.516;2023-09-08T13:39:20;27.19;55.20
68378;DHT22;55322;48.146;11.516;2023-09-08T13:41:50;27.31;56.35
68378;DHT22;55322;48.146;11.516;2023-09-08T13:44:17;27.14;57.73
68378;DHT22;55322;48.146;11.516;2023-09-08T13:46:43;27.04;57.60
68378;DHT22;55322;48.146;11.516;2023-09-08T13:49:08;27.27;55.34
68378;DHT22;55322;48.146;11.516;2023-09-08T13:51:34;27.16;55.67
68378;DHT22;55322;48.146;11.516;2023-09-08T13:53:59;26.99;56.06
68378;DHT22;55322;48.146;11.516;2023-09-08T13:56:24;26.86;56.02
68378;DHT22;55322;48.146;11.516;2023-09-08T13:58:50;26.89;56.58
68378;DHT22;55322;48.146;11.516;2023-09-08T14:01:15;27.04;56.88
68378;DHT22;55322;48.146;11.516;2023-09-08T14:03:41;27.14;55.85
68378;DHT22;55322;48.146;11.516;2023-09-08T14:06:06;27.22;56.36
68378;DHT22;55322;48.146;11.516;2023-09-08T14:08:32;27.34;57.07
68378;DHT22;55322;48.146;11.516;2023-09-08T14:10:57;27.44;57.86
68378;DHT22;55322;48.146;11.516;2023-09-08T14:13:22;27.16;56.93
68378;DHT22;55322;48.146;11.516;2023-09-08T14:15:48;27.13;55.15
68378;DHT22;55322;48.146;11.516;2023-09-08T14:18:13;27.00;56.04
68378;DHT22;55322;48.146;11.516;2023-09-08T14:20:40;26.90;56.14
68378;DHT22;55322;48.146;11.516;2023-09-08T14:23:06;26.87;55.08
68378;DHT22;55322;48.146;11.516;2023-09-08T14:25:33;26.99;56.28
68378;DHT22;55322;48.146;11.516;2023-09-08T14:27:58;26.97;57.70
68378;DHT22;55322;48.146;11.516;2023-09-08T14:30:23;26.96;56.57
68378;DHT22;55322;48.146;11.516;2023-09-08T14:32:49;27.03;57.82
68378;DHT22;55322;48.146;11.516;2023-09-08T14:35:15;27.14;58.12
68378;DHT22;55322;48.146;11.516;2023-09-08T14:37:40;27.02;57.09
68378;DHT22;55322;48.146;11.516;2023-09-08T14:40:06;27.09;56.22
68378;DHT22;55322;48.146;11.516;2023-09-08T14:42:31;26.92;55.90
68378;DHT22;55322;48.146;11.516;2023-09-08T14:44:57;26.86;57.18
68378;DHT22;55322;48.146;11.516;2023-09-08T14:47:22;26.85;58.05
68378;DHT22;55322;48.146;11.516;2023-09-08T14:49:48;26.72;56.95
68378;DHT22;55322;48.146;11.516;2023-09-08T14:52:13;26.66;55.82
68378;DHT22;55322;48.146;11.516;2023-09-08T14:54:40;26.69;56.33
68378;DHT22;55322;48.146;11.516;2023-09-08T14:57:05;26.73;55.37
68378;DHT22;55322;48.146;11.516;2023-09-08T14:59:30;26.66;56.62
68378;DHT22;55322;48.146;11.516;2023-09-08T15:01:56;26.55;56.74
68378;DHT22;55322;48.146;11.516;2023-09-08T15:04:21;26.46;57.61
68378;DHT22;55322;48.146;11.516;2023-09-08T15:06:46;26.53;57.57
68378;DHT22;55322;48.146;11.516;2023-09-08T15:09:12;26.78;56.08
68378;DHT22;55322;48.146;11.516;2023-09-08T15:11:37;26.79;55.57
68378;DHT22;55322;48.146;11.516;2023-09-08T15:14:03;26.68;56.10
68378;DHT22;55322;48.146;11.516;2023-09-08T15:16:28;26.60;57.43